Airport View

Enter AWOS ICAO identifier for current METAR.

ex. KFNL

KMRY 191754Z 32003KT 10SM OVC011 16/12 A3000 RMK AO2 SLP169 T01610122 10167 20133 51006

19 Jun 2019 18:58

Phone: 831-642-0241

Other Area AWOS: KSNS - KWVI - KCVH - KE16

TAF KMRY 191739Z 1918/2018 VRB04KT P6SM BKN010 FM192000 24009KT P6SM FEW015 FM200200 24007KT P6SM BKN010 FM200500 VRB04KT P6SM OVC007 FM200800 VRB03KT 5SM BR OVC004 FM201600 VRB04KT P6SM OVC007